sensor_id;sensor_type;location;lat;lon;timestamp;P1;durP1;ratioP1;P2;durP2;ratioP2
18754;SDS011;35061;47.664;9.166;2023-11-19T00:00:20;1.40;;;1.20;;
18754;SDS011;35061;47.664;9.166;2023-11-19T00:02:48;2.15;;;0.98;;
18754;SDS011;35061;47.664;9.166;2023-11-19T00:05:16;1.10;;;0.90;;
18754;SDS011;35061;47.664;9.166;2023-11-19T00:07:44;1.05;;;1.02;;
18754;SDS011;35061;47.664;9.166;2023-11-19T00:10:12;1.40;;;1.10;;
18754;SDS011;35061;47.664;9.166;2023-11-19T00:12:49;2.47;;;1.37;;
18754;SDS011;35061;47.664;9.166;2023-11-19T00:15:17;2.67;;;1.37;;
18754;SDS011;35061;47.664;9.166;2023-11-19T00:17:47;1.30;;;1.20;;
18754;SDS011;35061;47.664;9.166;2023-11-19T00:20:17;1.27;;;1.17;;
18754;SDS011;35061;47.664;9.166;2023-11-19T00:22:47;0.90;;;0.90;;
18754;SDS011;35061;47.664;9.166;2023-11-19T00:25:21;0.88;;;0.88;;
18754;SDS011;35061;47.664;9.166;2023-11-19T00:27:50;1.33;;;0.90;;
18754;SDS011;35061;47.664;9.166;2023-11-19T00:30:19;1.62;;;1.20;;
18754;SDS011;35061;47.664;9.166;2023-11-19T00:32:47;1.12;;;0.98;;
18754;SDS011;35061;47.664;9.166;2023-11-19T00:35:15;1.50;;;1.10;;
18754;SDS011;35061;47.664;9.166;2023-11-19T00:37:43;1.90;;;1.50;;
18754;SDS011;35061;47.664;9.166;2023-11-19T00:40:13;1.42;;;1.15;;
18754;SDS011;35061;47.664;9.166;2023-11-19T00:42:43;1.23;;;1.10;;
18754;SDS011;35061;47.664;9.166;2023-11-19T00:45:11;1.30;;;1.20;;
18754;SDS011;35061;47.664;9.166;2023-11-19T00:47:40;1.15;;;1.05;;
18754;SDS011;35061;47.664;9.166;2023-11-19T00:50:08;1.37;;;1.15;;
18754;SDS011;35061;47.664;9.166;2023-11-19T00:52:37;1.92;;;1.37;;
18754;SDS011;35061;47.664;9.166;2023-11-19T00:55:06;1.50;;;1.40;;
18754;SDS011;35061;47.664;9.166;2023-11-19T00:57:34;1.60;;;1.25;;
18754;SDS011;35061;47.664;9.166;2023-11-19T01:00:03;1.20;;;1.10;;
18754;SDS011;35061;47.664;9.166;2023-11-19T01:02:40;1.30;;;1.20;;
18754;SDS011;35061;47.664;9.166;2023-11-19T01:05:09;3.87;;;1.37;;
18754;SDS011;35061;47.664;9.166;2023-11-19T01:07:37;1.20;;;1.10;;
18754;SDS011;35061;47.664;9.166;2023-11-19T01:10:05;1.37;;;1.27;;
18754;SDS011;35061;47.664;9.166;2023-11-19T01:12:35;1.87;;;1.48;;
18754;SDS011;35061;47.664;9.166;2023-11-19T01:15:03;1.87;;;1.42;;
18754;SDS011;35061;47.664;9.166;2023-11-19T01:17:32;0.93;;;0.90;;
18754;SDS011;35061;47.664;9.166;2023-11-19T01:20:00;1.60;;;1.25;;
18754;SDS011;35061;47.664;9.166;2023-11-19T01:22:28;1.45;;;1.35;;
18754;SDS011;35061;47.664;9.166;2023-11-19T01:24:56;1.60;;;1.10;;
18754;SDS011;35061;47.664;9.166;2023-11-19T01:27:25;1.40;;;1.30;;
18754;SDS011;35061;47.664;9.166;2023-11-19T01:29:53;1.20;;;1.10;;
18754;SDS011;35061;47.664;9.166;2023-11-19T01:32:22;1.27;;;1.17;;
18754;SDS011;35061;47.664;9.166;2023-11-19T01:34:51;1.60;;;1.50;;
18754;SDS011;35061;47.664;9.166;2023-11-19T01:37:19;1.00;;;1.00;;
18754;SDS011;35061;47.664;9.166;2023-11-19T01:39:47;1.30;;;1.20;;
18754;SDS011;35061;47.664;9.166;2023-11-19T01:42:24;1.45;;;1.30;;
18754;SDS011;35061;47.664;9.166;2023-11-19T01:44:57;1.60;;;1.50;;
18754;SDS011;35061;47.664;9.166;2023-11-19T01:47:29;1.20;;;1.10;;
18754;SDS011;35061;47.664;9.166;2023-11-19T01:49:58;1.42;;;1.30;;
18754;SDS011;35061;47.664;9.166;2023-11-19T01:52:27;1.20;;;1.10;;
18754;SDS011;35061;47.664;9.166;2023-11-19T01:54:55;1.52;;;1.10;;
18754;SDS011;35061;47.664;9.166;2023-11-19T01:57:23;1.27;;;1.12;;
18754;SDS011;35061;47.664;9.166;2023-11-19T01:59:52;1.30;;;1.20;;
18754;SDS011;35061;47.664;9.166;2023-11-19T02:02:21;1.45;;;1.20;;
18754;SDS011;35061;47.664;9.166;2023-11-19T02:04:49;1.85;;;1.75;;
18754;SDS011;35061;47.664;9.166;2023-11-19T02:07:20;1.12;;;1.08;;
18754;SDS011;35061;47.664;9.166;2023-11-19T02:09:48;1.40;;;1.30;;
18754;SDS011;35061;47.664;9.166;2023-11-19T02:12:16;1.48;;;1.17;;
18754;SDS011;35061;47.664;9.166;2023-11-19T02:14:44;1.30;;;1.17;;
18754;SDS011;35061;47.664;9.166;2023-11-19T02:17:25;1.40;;;1.15;;
18754;SDS011;35061;47.664;9.166;2023-11-19T02:19:59;1.37;;;1.27;;
18754;SDS011;35061;47.664;9.166;2023-11-19T02:22:27;1.40;;;1.30;;
18754;SDS011;35061;47.664;9.166;2023-11-19T02:25:04;1.15;;;0.98;;
18754;SDS011;35061;47.664;9.166;2023-11-19T02:27:53;1.42;;;1.10;;
18754;SDS011;35061;47.664;9.166;2023-11-19T02:30:24;2.33;;;1.52;;
18754;SDS011;35061;47.664;9.166;2023-11-19T02:32:56;1.77;;;1.62;;
18754;SDS011;35061;47.664;9.166;2023-11-19T02:35:29;1.75;;;1.58;;
18754;SDS011;35061;47.664;9.166;2023-11-19T02:37:59;1.75;;;1.33;;
18754;SDS011;35061;47.664;9.166;2023-11-19T02:40:28;2.25;;;1.20;;
18754;SDS011;35061;47.664;9.166;2023-11-19T02:42:56;2.67;;;1.42;;
18754;SDS011;35061;47.664;9.166;2023-11-19T02:45:25;1.48;;;1.37;;
18754;SDS011;35061;47.664;9.166;2023-11-19T02:47:55;1.83;;;1.20;;
18754;SDS011;35061;47.664;9.166;2023-11-19T02:50:24;2.92;;;1.50;;
18754;SDS011;35061;47.664;9.166;2023-11-19T02:52:53;1.65;;;1.42;;
18754;SDS011;35061;47.664;9.166;2023-11-19T02:55:24;1.60;;;1.50;;
18754;SDS011;35061;47.664;9.166;2023-11-19T02:57:52;2.20;;;1.33;;
18754;SDS011;35061;47.664;9.166;2023-11-19T03:00:21;2.85;;;1.67;;
18754;SDS011;35061;47.664;9.166;2023-11-19T03:02:59;1.58;;;1.48;;
18754;SDS011;35061;47.664;9.166;2023-11-19T03:05:33;4.90;;;1.83;;
18754;SDS011;35061;47.664;9.166;2023-11-19T03:08:00;1.60;;;1.40;;
18754;SDS011;35061;47.664;9.166;2023-11-19T03:10:29;2.10;;;1.60;;
18754;SDS011;35061;47.664;9.166;2023-11-19T03:12:56;2.10;;;1.70;;
18754;SDS011;35061;47.664;9.166;2023-11-19T03:15:25;1.85;;;1.60;;
18754;SDS011;35061;47.664;9.166;2023-11-19T03:17:53;2.72;;;2.05;;
18754;SDS011;35061;47.664;9.166;2023-11-19T03:20:21;1.95;;;1.85;;
18754;SDS011;35061;47.664;9.166;2023-11-19T03:22:51;1.77;;;1.60;;
18754;SDS011;35061;47.664;9.166;2023-11-19T03:25:20;3.72;;;1.95;;
18754;SDS011;35061;47.664;9.166;2023-11-19T03:27:48;2.58;;;1.95;;
18754;SDS011;35061;47.664;9.166;2023-11-19T03:30:16;1.73;;;1.62;;
18754;SDS011;35061;47.664;9.166;2023-11-19T03:32:45;3.53;;;2.00;;
18754;SDS011;35061;47.664;9.166;2023-11-19T03:35:13;1.77;;;1.67;;
18754;SDS011;35061;47.664;9.166;2023-11-19T03:37:41;2.22;;;1.40;;
18754;SDS011;35061;47.664;9.166;2023-11-19T03:40:10;2.10;;;1.90;;
18754;SDS011;35061;47.664;9.166;2023-11-19T03:42:42;2.37;;;1.98;;
18754;SDS011;35061;47.664;9.166;2023-11-19T03:45:10;3.33;;;1.95;;
18754;SDS011;35061;47.664;9.166;2023-11-19T03:47:38;2.62;;;1.85;;
18754;SDS011;35061;47.664;9.166;2023-11-19T03:50:06;2.60;;;1.50;;
18754;SDS011;35061;47.664;9.166;2023-11-19T03:52:37;2.08;;;1.48;;
18754;SDS011;35061;47.664;9.166;2023-11-19T03:55:08;2.15;;;1.95;;
18754;SDS011;35061;47.664;9.166;2023-11-19T03:57:36;1.50;;;1.40;;
18754;SDS011;35061;47.664;9.166;2023-11-19T04:00:04;1.85;;;1.75;;
18754;SDS011;35061;47.664;9.166;2023-11-19T04:02:37;4.15;;;1.80;;
18754;SDS011;35061;47.664;9.166;2023-11-19T04:05:05;1.75;;;1.50;;
18754;SDS011;35061;47.664;9.166;2023-11-19T04:07:34;1.48;;;1.37;;
18754;SDS011;35061;47.664;9.166;2023-11-19T04:10:02;1.50;;;1.40;;
18754;SDS011;35061;47.664;9.166;2023-11-19T04:12:30;1.83;;;1.52;;
18754;SDS011;35061;47.664;9.166;2023-11-19T04:14:58;2.37;;;1.58;;
18754;SDS011;35061;47.664;9.166;2023-11-19T04:17:27;1.50;;;1.30;;
18754;SDS011;35061;47.664;9.166;2023-11-19T04:19:56;2.75;;;1.50;;
18754;SDS011;35061;47.664;9.166;2023-11-19T04:22:23;2.08;;;1.37;;
18754;SDS011;35061;47.664;9.166;2023-11-19T04:24:51;1.70;;;1.60;;
18754;SDS011;35061;47.664;9.166;2023-11-19T04:27:19;1.90;;;1.40;;
18754;SDS011;35061;47.664;9.166;2023-11-19T04:29:47;4.18;;;2.05;;
18754;SDS011;35061;47.664;9.166;2023-11-19T04:32:16;2.30;;;1.90;;
18754;SDS011;35061;47.664;9.166;2023-11-19T04:34:44;1.90;;;1.73;;
18754;SDS011;35061;47.664;9.166;2023-11-19T04:37:12;2.00;;;1.87;;
18754;SDS011;35061;47.664;9.166;2023-11-19T04:39:40;4.87;;;1.98;;
18754;SDS011;35061;47.664;9.166;2023-11-19T04:42:08;3.05;;;1.70;;
18754;SDS011;35061;47.664;9.166;2023-11-19T04:44:36;2.75;;;1.80;;
18754;SDS011;35061;47.664;9.166;2023-11-19T04:47:04;2.28;;;1.75;;
18754;SDS011;35061;47.664;9.166;2023-11-19T04:49:32;2.15;;;1.95;;
18754;SDS011;35061;47.664;9.166;2023-11-19T04:52:00;2.08;;;1.87;;
18754;SDS011;35061;47.664;9.166;2023-11-19T04:54:28;1.90;;;1.62;;
18754;SDS011;35061;47.664;9.166;2023-11-19T04:56:56;2.00;;;1.83;;
18754;SDS011;35061;47.664;9.166;2023-11-19T04:59:24;1.73;;;1.40;;
18754;SDS011;35061;47.664;9.166;2023-11-19T05:01:52;2.37;;;1.90;;
18754;SDS011;35061;47.664;9.166;2023-11-19T05:04:20;2.67;;;1.80;;
18754;SDS011;35061;47.664;9.166;2023-11-19T05:06:48;1.83;;;1.50;;
18754;SDS011;35061;47.664;9.166;2023-11-19T05:09:19;1.80;;;1.70;;
18754;SDS011;35061;47.664;9.166;2023-11-19T05:11:47;2.87;;;2.00;;
18754;SDS011;35061;47.664;9.166;2023-11-19T05:14:17;1.55;;;1.45;;
18754;SDS011;35061;47.664;9.166;2023-11-19T05:16:49;3.40;;;1.70;;
18754;SDS011;35061;47.664;9.166;2023-11-19T05:19:17;2.25;;;1.45;;
18754;SDS011;35061;47.664;9.166;2023-11-19T05:21:46;1.90;;;1.75;;
18754;SDS011;35061;47.664;9.166;2023-11-19T05:24:14;1.60;;;1.42;;
18754;SDS011;35061;47.664;9.166;2023-11-19T05:26:42;2.42;;;1.55;;
18754;SDS011;35061;47.664;9.166;2023-11-19T05:29:13;1.87;;;1.50;;
18754;SDS011;35061;47.664;9.166;2023-11-19T05:31:40;1.90;;;1.50;;
18754;SDS011;35061;47.664;9.166;2023-11-19T05:34:10;3.33;;;2.00;;
18754;SDS011;35061;47.664;9.166;2023-11-19T05:36:39;1.80;;;1.70;;
18754;SDS011;35061;47.664;9.166;2023-11-19T05:39:07;1.80;;;1.60;;
18754;SDS011;35061;47.664;9.166;2023-11-19T05:41:36;2.28;;;1.60;;
18754;SDS011;35061;47.664;9.166;2023-11-19T05:44:04;3.45;;;1.87;;
18754;SDS011;35061;47.664;9.166;2023-11-19T05:46:32;1.70;;;1.30;;
18754;SDS011;35061;47.664;9.166;2023-11-19T05:49:00;2.05;;;1.65;;
18754;SDS011;35061;47.664;9.166;2023-11-19T05:51:30;1.10;;;1.00;;
18754;SDS011;35061;47.664;9.166;2023-11-19T05:54:01;1.23;;;1.12;;
18754;SDS011;35061;47.664;9.166;2023-11-19T05:56:29;1.35;;;1.25;;
18754;SDS011;35061;47.664;9.166;2023-11-19T05:59:00;2.45;;;1.33;;
18754;SDS011;35061;47.664;9.166;2023-11-19T06:01:46;1.92;;;1.12;;
18754;SDS011;35061;47.664;9.166;2023-11-19T06:04:14;1.37;;;1.27;;
18754;SDS011;35061;47.664;9.166;2023-11-19T06:06:42;1.67;;;1.33;;
18754;SDS011;35061;47.664;9.166;2023-11-19T06:09:10;3.05;;;1.58;;
18754;SDS011;35061;47.664;9.166;2023-11-19T06:11:41;2.72;;;1.35;;
18754;SDS011;35061;47.664;9.166;2023-11-19T06:14:09;2.00;;;1.10;;
18754;SDS011;35061;47.664;9.166;2023-11-19T06:16:37;1.30;;;1.20;;
18754;SDS011;35061;47.664;9.166;2023-11-19T06:19:07;1.52;;;1.42;;
18754;SDS011;35061;47.664;9.166;2023-11-19T06:21:36;2.65;;;1.50;;
18754;SDS011;35061;47.664;9.166;2023-11-19T06:24:07;1.37;;;1.27;;
18754;SDS011;35061;47.664;9.166;2023-11-19T06:26:36;1.50;;;1.27;;
18754;SDS011;35061;47.664;9.166;2023-11-19T06:29:04;2.33;;;1.70;;
18754;SDS011;35061;47.664;9.166;2023-11-19T06:31:32;1.98;;;1.20;;
18754;SDS011;35061;47.664;9.166;2023-11-19T06:34:00;1.37;;;1.27;;
18754;SDS011;35061;47.664;9.166;2023-11-19T06:36:28;1.77;;;1.20;;
18754;SDS011;35061;47.664;9.166;2023-11-19T06:38:56;1.42;;;1.33;;
18754;SDS011;35061;47.664;9.166;2023-11-19T06:41:24;1.15;;;1.05;;
18754;SDS011;35061;47.664;9.166;2023-11-19T06:43:52;1.35;;;1.25;;
18754;SDS011;35061;47.664;9.166;2023-11-19T06:46:21;2.05;;;1.00;;
18754;SDS011;35061;47.664;9.166;2023-11-19T06:48:49;0.95;;;0.90;;
18754;SDS011;35061;47.664;9.166;2023-11-19T06:51:18;1.35;;;1.25;;
18754;SDS011;35061;47.664;9.166;2023-11-19T06:53:46;1.23;;;1.12;;
18754;SDS011;35061;47.664;9.166;2023-11-19T06:56:18;1.48;;;0.98;;
18754;SDS011;35061;47.664;9.166;2023-11-19T06:58:52;1.20;;;1.10;;
18754;SDS011;35061;47.664;9.166;2023-11-19T07:01:20;1.10;;;1.00;;
18754;SDS011;35061;47.664;9.166;2023-11-19T07:03:49;2.08;;;1.35;;
18754;SDS011;35061;47.664;9.166;2023-11-19T07:06:18;1.25;;;1.15;;
18754;SDS011;35061;47.664;9.166;2023-11-19T07:09:00;1.83;;;1.30;;
18754;SDS011;35061;47.664;9.166;2023-11-19T07:11:40;1.95;;;1.15;;
18754;SDS011;35061;47.664;9.166;2023-11-19T07:14:09;1.08;;;1.00;;
18754;SDS011;35061;47.664;9.166;2023-11-19T07:16:37;1.65;;;1.00;;
18754;SDS011;35061;47.664;9.166;2023-11-19T07:19:06;1.17;;;1.00;;
18754;SDS011;35061;47.664;9.166;2023-11-19T07:21:34;1.10;;;1.00;;
18754;SDS011;35061;47.664;9.166;2023-11-19T07:24:02;3.00;;;1.15;;
18754;SDS011;35061;47.664;9.166;2023-11-19T07:26:31;1.55;;;1.00;;
18754;SDS011;35061;47.664;9.166;2023-11-19T07:29:02;1.00;;;0.93;;
18754;SDS011;35061;47.664;9.166;2023-11-19T07:31:30;0.88;;;0.88;;
18754;SDS011;35061;47.664;9.166;2023-11-19T07:33:58;1.98;;;1.05;;
18754;SDS011;35061;47.664;9.166;2023-11-19T07:36:26;1.73;;;1.05;;
18754;SDS011;35061;47.664;9.166;2023-11-19T07:38:53;1.08;;;0.95;;
18754;SDS011;35061;47.664;9.166;2023-11-19T07:41:27;0.75;;;0.73;;
18754;SDS011;35061;47.664;9.166;2023-11-19T07:43:55;1.65;;;0.95;;
18754;SDS011;35061;47.664;9.166;2023-11-19T07:46:23;1.10;;;1.00;;
18754;SDS011;35061;47.664;9.166;2023-11-19T07:48:52;0.80;;;0.80;;
18754;SDS011;35061;47.664;9.166;2023-11-19T07:51:20;1.30;;;1.15;;
18754;SDS011;35061;47.664;9.166;2023-11-19T07:53:51;0.80;;;0.80;;
18754;SDS011;35061;47.664;9.166;2023-11-19T07:56:22;1.37;;;1.08;;
18754;SDS011;35061;47.664;9.166;2023-11-19T07:58:50;1.12;;;0.80;;
18754;SDS011;35061;47.664;9.166;2023-11-19T08:01:19;2.35;;;1.40;;
18754;SDS011;35061;47.664;9.166;2023-11-19T08:03:47;1.95;;;1.08;;
18754;SDS011;35061;47.664;9.166;2023-11-19T08:06:18;1.90;;;0.93;;
18754;SDS011;35061;47.664;9.166;2023-11-19T08:08:46;1.23;;;1.12;;
18754;SDS011;35061;47.664;9.166;2023-11-19T08:11:18;1.60;;;1.10;;
18754;SDS011;35061;47.664;9.166;2023-11-19T08:13:47;1.20;;;1.10;;
18754;SDS011;35061;47.664;9.166;2023-11-19T08:16:18;3.47;;;1.27;;
18754;SDS011;35061;47.664;9.166;2023-11-19T08:18:46;1.40;;;1.30;;
18754;SDS011;35061;47.664;9.166;2023-11-19T08:21:14;3.10;;;1.45;;
18754;SDS011;35061;47.664;9.166;2023-11-19T08:23:42;1.62;;;1.02;;
18754;SDS011;35061;47.664;9.166;2023-11-19T08:26:10;1.02;;;0.90;;
18754;SDS011;35061;47.664;9.166;2023-11-19T08:28:38;1.33;;;1.12;;
18754;SDS011;35061;47.664;9.166;2023-11-19T08:31:07;1.02;;;0.90;;
18754;SDS011;35061;47.664;9.166;2023-11-19T08:33:35;1.35;;;1.08;;
18754;SDS011;35061;47.664;9.166;2023-11-19T08:36:03;1.15;;;0.80;;
18754;SDS011;35061;47.664;9.166;2023-11-19T08:38:32;0.98;;;0.80;;
18754;SDS011;35061;47.664;9.166;2023-11-19T08:41:02;0.80;;;0.62;;
18754;SDS011;35061;47.664;9.166;2023-11-19T08:43:32;0.75;;;0.75;;
18754;SDS011;35061;47.664;9.166;2023-11-19T08:45:59;0.90;;;0.90;;
18754;SDS011;35061;47.664;9.166;2023-11-19T08:48:27;1.35;;;0.77;;
18754;SDS011;35061;47.664;9.166;2023-11-19T08:50:55;1.30;;;0.95;;
18754;SDS011;35061;47.664;9.166;2023-11-19T08:53:23;0.93;;;0.60;;
18754;SDS011;35061;47.664;9.166;2023-11-19T08:55:51;0.70;;;0.70;;
18754;SDS011;35061;47.664;9.166;2023-11-19T08:58:20;1.75;;;0.70;;
18754;SDS011;35061;47.664;9.166;2023-11-19T09:00:48;1.05;;;0.70;;
18754;SDS011;35061;47.664;9.166;2023-11-19T09:03:18;1.00;;;0.90;;
18754;SDS011;35061;47.664;9.166;2023-11-19T09:05:48;1.67;;;0.82;;
18754;SDS011;35061;47.664;9.166;2023-11-19T09:08:16;1.20;;;0.90;;
18754;SDS011;35061;47.664;9.166;2023-11-19T09:10:44;1.02;;;0.93;;
18754;SDS011;35061;47.664;9.166;2023-11-19T09:13:13;1.00;;;0.80;;
18754;SDS011;35061;47.664;9.166;2023-11-19T09:15:41;1.30;;;0.95;;
18754;SDS011;35061;47.664;9.166;2023-11-19T09:18:12;1.40;;;1.02;;
18754;SDS011;35061;47.664;9.166;2023-11-19T09:20:40;3.33;;;0.90;;
18754;SDS011;35061;47.664;9.166;2023-11-19T09:23:08;1.33;;;0.75;;
18754;SDS011;35061;47.664;9.166;2023-11-19T09:25:36;0.77;;;0.73;;
18754;SDS011;35061;47.664;9.166;2023-11-19T09:28:07;1.35;;;0.85;;
18754;SDS011;35061;47.664;9.166;2023-11-19T09:30:39;0.90;;;0.90;;
18754;SDS011;35061;47.664;9.166;2023-11-19T09:33:09;1.10;;;0.90;;
18754;SDS011;35061;47.664;9.166;2023-11-19T09:35:38;1.45;;;0.80;;
18754;SDS011;35061;47.664;9.166;2023-11-19T09:38:06;1.50;;;0.70;;
18754;SDS011;35061;47.664;9.166;2023-11-19T09:40:34;0.80;;;0.80;;
18754;SDS011;35061;47.664;9.166;2023-11-19T09:43:02;1.25;;;0.80;;
18754;SDS011;35061;47.664;9.166;2023-11-19T09:45:30;0.80;;;0.80;;
18754;SDS011;35061;47.664;9.166;2023-11-19T09:48:08;0.62;;;0.60;;
18754;SDS011;35061;47.664;9.166;2023-11-19T09:50:36;1.52;;;0.75;;
18754;SDS011;35061;47.664;9.166;2023-11-19T09:53:05;1.12;;;0.77;;
18754;SDS011;35061;47.664;9.166;2023-11-19T09:55:34;1.15;;;0.88;;
18754;SDS011;35061;47.664;9.166;2023-11-19T09:58:02;0.80;;;0.80;;
18754;SDS011;35061;47.664;9.166;2023-11-19T10:00:30;0.62;;;0.62;;
18754;SDS011;35061;47.664;9.166;2023-11-19T10:02:59;0.70;;;0.70;;
18754;SDS011;35061;47.664;9.166;2023-11-19T10:05:28;0.77;;;0.77;;
18754;SDS011;35061;47.664;9.166;2023-11-19T10:07:56;1.75;;;0.65;;
18754;SDS011;35061;47.664;9.166;2023-11-19T10:10:24;0.55;;;0.50;;
18754;SDS011;35061;47.664;9.166;2023-11-19T10:12:54;0.85;;;0.68;;
18754;SDS011;35061;47.664;9.166;2023-11-19T10:15:24;2.28;;;0.90;;
18754;SDS011;35061;47.664;9.166;2023-11-19T10:17:57;0.60;;;0.60;;
18754;SDS011;35061;47.664;9.166;2023-11-19T10:20:25;1.80;;;0.95;;
18754;SDS011;35061;47.664;9.166;2023-11-19T10:22:53;0.68;;;0.68;;
18754;SDS011;35061;47.664;9.166;2023-11-19T10:25:26;1.27;;;0.80;;
18754;SDS011;35061;47.664;9.166;2023-11-19T10:27:56;0.90;;;0.90;;
18754;SDS011;35061;47.664;9.166;2023-11-19T10:30:25;1.48;;;0.70;;
18754;SDS011;35061;47.664;9.166;2023-11-19T10:33:04;4.05;;;0.70;;
18754;SDS011;35061;47.664;9.166;2023-11-19T10:35:49;0.80;;;0.65;;
18754;SDS011;35061;47.664;9.166;2023-11-19T10:38:25;0.77;;;0.77;;
18754;SDS011;35061;47.664;9.166;2023-11-19T10:40:54;0.98;;;0.62;;
18754;SDS011;35061;47.664;9.166;2023-11-19T10:43:22;0.85;;;0.73;;
18754;SDS011;35061;47.664;9.166;2023-11-19T10:45:51;0.70;;;0.70;;
18754;SDS011;35061;47.664;9.166;2023-11-19T10:48:19;0.95;;;0.80;;
18754;SDS011;35061;47.664;9.166;2023-11-19T10:50:49;0.93;;;0.80;;
18754;SDS011;35061;47.664;9.166;2023-11-19T10:53:22;1.05;;;0.98;;
18754;SDS011;35061;47.664;9.166;2023-11-19T10:55:55;0.80;;;0.77;;
18754;SDS011;35061;47.664;9.166;2023-11-19T10:58:25;0.95;;;0.93;;
18754;SDS011;35061;47.664;9.166;2023-11-19T11:01:01;1.02;;;0.93;;
18754;SDS011;35061;47.664;9.166;2023-11-19T11:03:31;0.80;;;0.80;;
18754;SDS011;35061;47.664;9.166;2023-11-19T11:06:07;0.70;;;0.70;;
18754;SDS011;35061;47.664;9.166;2023-11-19T11:08:37;0.75;;;0.75;;
18754;SDS011;35061;47.664;9.166;2023-11-19T11:11:07;0.65;;;0.65;;
18754;SDS011;35061;47.664;9.166;2023-11-19T11:13:35;1.85;;;0.62;;
18754;SDS011;35061;47.664;9.166;2023-11-19T11:16:06;0.80;;;0.80;;
18754;SDS011;35061;47.664;9.166;2023-11-19T11:18:35;0.80;;;0.80;;
18754;SDS011;35061;47.664;9.166;2023-11-19T11:21:11;0.68;;;0.65;;
18754;SDS011;35061;47.664;9.166;2023-11-19T11:24:01;0.70;;;0.70;;
18754;SDS011;35061;47.664;9.166;2023-11-19T11:32:31;1.27;;;0.90;;
18754;SDS011;35061;47.664;9.166;2023-11-19T11:38:04;2.75;;;0.80;;
18754;SDS011;35061;47.664;9.166;2023-11-19T11:40:35;0.68;;;0.68;;
18754;SDS011;35061;47.664;9.166;2023-11-19T11:43:43;0.70;;;0.70;;
18754;SDS011;35061;47.664;9.166;2023-11-19T11:49:00;0.62;;;0.62;;
18754;SDS011;35061;47.664;9.166;2023-11-19T11:59:49;2.45;;;0.57;;
18754;SDS011;35061;47.664;9.166;2023-11-19T12:02:21;0.70;;;0.70;;
18754;SDS011;35061;47.664;9.166;2023-11-19T12:04:51;1.20;;;0.80;;
18754;SDS011;35061;47.664;9.166;2023-11-19T12:07:20;1.52;;;0.70;;
18754;SDS011;35061;47.664;9.166;2023-11-19T12:09:55;0.60;;;0.60;;
18754;SDS011;35061;47.664;9.166;2023-11-19T12:12:35;0.55;;;0.55;;
18754;SDS011;35061;47.664;9.166;2023-11-19T12:15:06;1.05;;;0.70;;
18754;SDS011;35061;47.664;9.166;2023-11-19T12:17:41;3.90;;;0.70;;
18754;SDS011;35061;47.664;9.166;2023-11-19T12:20:12;0.80;;;0.60;;
18754;SDS011;35061;47.664;9.166;2023-11-19T12:22:40;0.52;;;0.50;;
18754;SDS011;35061;47.664;9.166;2023-11-19T12:25:10;0.65;;;0.65;;
18754;SDS011;35061;47.664;9.166;2023-11-19T12:27:44;0.70;;;0.70;;
18754;SDS011;35061;47.664;9.166;2023-11-19T12:30:25;0.73;;;0.73;;
18754;SDS011;35061;47.664;9.166;2023-11-19T12:32:54;0.70;;;0.70;;
18754;SDS011;35061;47.664;9.166;2023-11-19T12:35:22;0.98;;;0.98;;
18754;SDS011;35061;47.664;9.166;2023-11-19T12:37:57;1.30;;;0.90;;
18754;SDS011;35061;47.664;9.166;2023-11-19T12:40:25;1.27;;;0.88;;
18754;SDS011;35061;47.664;9.166;2023-11-19T12:42:54;2.25;;;0.82;;
18754;SDS011;35061;47.664;9.166;2023-11-19T12:45:22;1.37;;;1.00;;
18754;SDS011;35061;47.664;9.166;2023-11-19T12:48:09;1.23;;;1.00;;
18754;SDS011;35061;47.664;9.166;2023-11-19T12:50:52;0.90;;;0.80;;
18754;SDS011;35061;47.664;9.166;2023-11-19T12:53:25;0.90;;;0.80;;
18754;SDS011;35061;47.664;9.166;2023-11-19T12:55:54;1.67;;;0.70;;
18754;SDS011;35061;47.664;9.166;2023-11-19T12:58:32;2.47;;;0.88;;
18754;SDS011;35061;47.664;9.166;2023-11-19T13:01:06;1.10;;;1.00;;
18754;SDS011;35061;47.664;9.166;2023-11-19T13:03:36;1.30;;;0.93;;
18754;SDS011;35061;47.664;9.166;2023-11-19T13:06:07;1.83;;;0.90;;
18754;SDS011;35061;47.664;9.166;2023-11-19T13:11:09;1.30;;;1.02;;
18754;SDS011;35061;47.664;9.166;2023-11-19T13:16:36;1.65;;;0.80;;
18754;SDS011;35061;47.664;9.166;2023-11-19T13:19:05;1.87;;;1.10;;
18754;SDS011;35061;47.664;9.166;2023-11-19T13:21:33;1.15;;;1.05;;
18754;SDS011;35061;47.664;9.166;2023-11-19T13:24:01;1.23;;;1.12;;
18754;SDS011;35061;47.664;9.166;2023-11-19T13:26:29;1.75;;;1.60;;
18754;SDS011;35061;47.664;9.166;2023-11-19T13:28:57;0.70;;;0.70;;
18754;SDS011;35061;47.664;9.166;2023-11-19T13:31:26;1.12;;;0.82;;
18754;SDS011;35061;47.664;9.166;2023-11-19T13:33:54;1.12;;;1.00;;
18754;SDS011;35061;47.664;9.166;2023-11-19T13:36:22;2.25;;;0.98;;
18754;SDS011;35061;47.664;9.166;2023-11-19T13:38:50;1.73;;;0.90;;
18754;SDS011;35061;47.664;9.166;2023-11-19T13:41:19;0.80;;;0.80;;
18754;SDS011;35061;47.664;9.166;2023-11-19T13:43:47;1.17;;;0.95;;
18754;SDS011;35061;47.664;9.166;2023-11-19T13:46:15;0.82;;;0.80;;
18754;SDS011;35061;47.664;9.166;2023-11-19T13:48:43;1.02;;;0.80;;
18754;SDS011;35061;47.664;9.166;2023-11-19T13:51:12;1.12;;;0.80;;
18754;SDS011;35061;47.664;9.166;2023-11-19T13:53:40;0.85;;;0.85;;
18754;SDS011;35061;47.664;9.166;2023-11-19T13:56:11;1.15;;;0.85;;
18754;SDS011;35061;47.664;9.166;2023-11-19T13:58:39;0.95;;;0.80;;
18754;SDS011;35061;47.664;9.166;2023-11-19T14:01:08;1.05;;;0.93;;
18754;SDS011;35061;47.664;9.166;2023-11-19T14:03:36;0.95;;;0.95;;
18754;SDS011;35061;47.664;9.166;2023-11-19T14:06:04;1.73;;;0.85;;
18754;SDS011;35061;47.664;9.166;2023-11-19T14:08:34;0.70;;;0.70;;
18754;SDS011;35061;47.664;9.166;2023-11-19T14:11:02;1.23;;;0.90;;
18754;SDS011;35061;47.664;9.166;2023-11-19T14:13:30;0.90;;;0.88;;
18754;SDS011;35061;47.664;9.166;2023-11-19T14:15:58;1.27;;;0.90;;
18754;SDS011;35061;47.664;9.166;2023-11-19T14:18:26;0.70;;;0.70;;
18754;SDS011;35061;47.664;9.166;2023-11-19T14:20:55;1.00;;;0.90;;
18754;SDS011;35061;47.664;9.166;2023-11-19T14:23:22;0.80;;;0.80;;
18754;SDS011;35061;47.664;9.166;2023-11-19T14:25:51;1.35;;;0.90;;
18754;SDS011;35061;47.664;9.166;2023-11-19T14:28:19;1.10;;;0.90;;
18754;SDS011;35061;47.664;9.166;2023-11-19T14:30:47;0.70;;;0.60;;
18754;SDS011;35061;47.664;9.166;2023-11-19T14:33:21;0.70;;;0.70;;
18754;SDS011;35061;47.664;9.166;2023-11-19T14:35:49;1.17;;;1.08;;
18754;SDS011;35061;47.664;9.166;2023-11-19T14:38:17;1.12;;;0.60;;
18754;SDS011;35061;47.664;9.166;2023-11-19T14:40:45;0.90;;;0.80;;
18754;SDS011;35061;47.664;9.166;2023-11-19T14:43:13;0.93;;;0.85;;
18754;SDS011;35061;47.664;9.166;2023-11-19T14:45:43;1.12;;;0.80;;
18754;SDS011;35061;47.664;9.166;2023-11-19T14:48:16;1.10;;;1.00;;
18754;SDS011;35061;47.664;9.166;2023-11-19T14:50:45;0.75;;;0.70;;
18754;SDS011;35061;47.664;9.166;2023-11-19T14:53:13;0.70;;;0.70;;
18754;SDS011;35061;47.664;9.166;2023-11-19T14:55:42;1.17;;;1.00;;
18754;SDS011;35061;47.664;9.166;2023-11-19T14:58:10;0.80;;;0.80;;
18754;SDS011;35061;47.664;9.166;2023-11-19T15:00:42;0.77;;;0.77;;
18754;SDS011;35061;47.664;9.166;2023-11-19T15:03:10;0.80;;;0.80;;
18754;SDS011;35061;47.664;9.166;2023-11-19T15:05:38;0.70;;;0.70;;
18754;SDS011;35061;47.664;9.166;2023-11-19T15:08:06;0.77;;;0.77;;
18754;SDS011;35061;47.664;9.166;2023-11-19T15:10:34;0.80;;;0.80;;
18754;SDS011;35061;47.664;9.166;2023-11-19T15:13:02;0.82;;;0.82;;
18754;SDS011;35061;47.664;9.166;2023-11-19T15:15:32;0.80;;;0.70;;
18754;SDS011;35061;47.664;9.166;2023-11-19T15:18:02;0.90;;;0.70;;
18754;SDS011;35061;47.664;9.166;2023-11-19T15:20:30;1.12;;;0.90;;
18754;SDS011;35061;47.664;9.166;2023-11-19T15:22:59;0.90;;;0.90;;
18754;SDS011;35061;47.664;9.166;2023-11-19T15:25:27;2.35;;;1.40;;
18754;SDS011;35061;47.664;9.166;2023-11-19T15:27:55;1.05;;;0.95;;